sensor_id;sensor_type;location;lat;lon;timestamp;temperature;humidity
8099;DHT22;4092;47.876;9.372;2023-09-19T00:00:17;15.30;99.90
8099;DHT22;4092;47.876;9.372;2023-09-19T00:02:52;15.20;99.90
8099;DHT22;4092;47.876;9.372;2023-09-19T00:05:19;15.20;99.90
8099;DHT22;4092;47.876;9.372;2023-09-19T00:07:50;15.20;99.90
8099;DHT22;4092;47.876;9.372;2023-09-19T00:10:19;15.10;99.90
8099;DHT22;4092;47.876;9.372;2023-09-19T00:12:50;15.10;99.90
8099;DHT22;4092;47.876;9.372;2023-09-19T00:15:18;15.10;99.90
8099;DHT22;4092;47.876;9.372;2023-09-19T00:17:45;15.10;99.90
8099;DHT22;4092;47.876;9.372;2023-09-19T00:20:13;15.10;99.90
8099;DHT22;4092;47.876;9.372;2023-09-19T00:22:45;15.10;99.90
8099;DHT22;4092;47.876;9.372;2023-09-19T00:25:12;15.00;99.90
8099;DHT22;4092;47.876;9.372;2023-09-19T00:27:42;15.10;99.90
8099;DHT22;4092;47.876;9.372;2023-09-19T00:30:12;15.10;99.90
8099;DHT22;4092;47.876;9.372;2023-09-19T00:32:45;15.10;99.90
8099;DHT22;4092;47.876;9.372;2023-09-19T00:35:14;15.10;99.90
8099;DHT22;4092;47.876;9.372;2023-09-19T00:37:42;15.10;99.90
8099;DHT22;4092;47.876;9.372;2023-09-19T00:40:10;15.00;99.90
8099;DHT22;4092;47.876;9.372;2023-09-19T00:42:38;15.00;99.90
8099;DHT22;4092;47.876;9.372;2023-09-19T00:45:07;15.00;99.90
8099;DHT22;4092;47.876;9.372;2023-09-19T00:47:38;14.90;99.90
8099;DHT22;4092;47.876;9.372;2023-09-19T00:50:08;14.90;99.90
8099;DHT22;4092;47.876;9.372;2023-09-19T00:52:37;14.90;99.90
8099;DHT22;4092;47.876;9.372;2023-09-19T00:55:05;14.90;99.90
8099;DHT22;4092;47.876;9.372;2023-09-19T00:57:33;15.00;99.90
8099;DHT22;4092;47.876;9.372;2023-09-19T01:00:01;15.00;99.90
8099;DHT22;4092;47.876;9.372;2023-09-19T01:02:34;15.00;99.90
8099;DHT22;4092;47.876;9.372;2023-09-19T01:05:05;15.00;99.90
8099;DHT22;4092;47.876;9.372;2023-09-19T01:07:33;15.00;99.90
8099;DHT22;4092;47.876;9.372;2023-09-19T01:10:02;15.00;99.90
8099;DHT22;4092;47.876;9.372;2023-09-19T01:12:42;14.90;99.90
8099;DHT22;4092;47.876;9.372;2023-09-19T01:15:21;14.90;99.90
8099;DHT22;4092;47.876;9.372;2023-09-19T01:17:55;14.90;99.90
8099;DHT22;4092;47.876;9.372;2023-09-19T01:20:33;14.90;99.90
8099;DHT22;4092;47.876;9.372;2023-09-19T01:23:12;14.90;99.90
8099;DHT22;4092;47.876;9.372;2023-09-19T01:26:10;14.80;99.90
8099;DHT22;4092;47.876;9.372;2023-09-19T01:28:53;14.80;99.90
8099;DHT22;4092;47.876;9.372;2023-09-19T01:31:29;14.80;99.90
8099;DHT22;4092;47.876;9.372;2023-09-19T01:34:01;14.80;99.90
8099;DHT22;4092;47.876;9.372;2023-09-19T01:36:31;14.80;99.90
8099;DHT22;4092;47.876;9.372;2023-09-19T01:39:00;14.80;99.90
8099;DHT22;4092;47.876;9.372;2023-09-19T01:41:47;14.80;99.90
8099;DHT22;4092;47.876;9.372;2023-09-19T01:44:25;14.80;99.90
8099;DHT22;4092;47.876;9.372;2023-09-19T01:46:59;14.80;99.90
8099;DHT22;4092;47.876;9.372;2023-09-19T01:49:40;14.80;99.90
8099;DHT22;4092;47.876;9.372;2023-09-19T01:52:12;14.70;99.90
8099;DHT22;4092;47.876;9.372;2023-09-19T01:54:46;14.70;99.90
8099;DHT22;4092;47.876;9.372;2023-09-19T01:57:20;14.70;99.90
8099;DHT22;4092;47.876;9.372;2023-09-19T01:59:52;14.70;99.90
8099;DHT22;4092;47.876;9.372;2023-09-19T02:02:24;14.70;99.90
8099;DHT22;4092;47.876;9.372;2023-09-19T02:04:51;14.70;99.90
8099;DHT22;4092;47.876;9.372;2023-09-19T02:07:19;14.70;99.90
8099;DHT22;4092;47.876;9.372;2023-09-19T02:09:46;14.70;99.90
8099;DHT22;4092;47.876;9.372;2023-09-19T02:12:13;14.70;99.90
8099;DHT22;4092;47.876;9.372;2023-09-19T02:14:40;14.60;99.90
8099;DHT22;4092;47.876;9.372;2023-09-19T02:17:07;14.60;99.90
8099;DHT22;4092;47.876;9.372;2023-09-19T02:19:38;14.60;99.90
8099;DHT22;4092;47.876;9.372;2023-09-19T02:22:07;14.60;99.90
8099;DHT22;4092;47.876;9.372;2023-09-19T02:24:36;14.60;99.90
8099;DHT22;4092;47.876;9.372;2023-09-19T02:27:03;14.60;99.90
8099;DHT22;4092;47.876;9.372;2023-09-19T02:29:31;14.60;99.90
8099;DHT22;4092;47.876;9.372;2023-09-19T02:31:59;14.50;99.90
8099;DHT22;4092;47.876;9.372;2023-09-19T02:34:28;14.50;99.90
8099;DHT22;4092;47.876;9.372;2023-09-19T02:36:56;14.50;99.90
8099;DHT22;4092;47.876;9.372;2023-09-19T02:39:23;14.50;99.90
8099;DHT22;4092;47.876;9.372;2023-09-19T02:41:50;14.40;99.90
8099;DHT22;4092;47.876;9.372;2023-09-19T02:44:18;14.40;99.90
8099;DHT22;4092;47.876;9.372;2023-09-19T02:46:45;14.30;99.90
8099;DHT22;4092;47.876;9.372;2023-09-19T02:49:12;14.20;99.90
8099;DHT22;4092;47.876;9.372;2023-09-19T02:51:40;14.30;99.90
8099;DHT22;4092;47.876;9.372;2023-09-19T02:54:09;14.30;99.90
8099;DHT22;4092;47.876;9.372;2023-09-19T02:56:37;14.30;99.90
8099;DHT22;4092;47.876;9.372;2023-09-19T02:59:04;14.30;99.90
8099;DHT22;4092;47.876;9.372;2023-09-19T03:01:33;14.20;99.90
8099;DHT22;4092;47.876;9.372;2023-09-19T03:04:00;14.20;99.90
8099;DHT22;4092;47.876;9.372;2023-09-19T03:06:28;14.30;99.90
8099;DHT22;4092;47.876;9.372;2023-09-19T03:08:56;14.30;99.90
8099;DHT22;4092;47.876;9.372;2023-09-19T03:11:27;14.30;99.90
8099;DHT22;4092;47.876;9.372;2023-09-19T03:13:54;14.30;99.90
8099;DHT22;4092;47.876;9.372;2023-09-19T03:16:21;14.30;99.90
8099;DHT22;4092;47.876;9.372;2023-09-19T03:18:48;14.30;99.90
8099;DHT22;4092;47.876;9.372;2023-09-19T03:21:15;14.30;99.90
8099;DHT22;4092;47.876;9.372;2023-09-19T03:23:45;14.30;99.90
8099;DHT22;4092;47.876;9.372;2023-09-19T03:26:12;14.30;99.90
8099;DHT22;4092;47.876;9.372;2023-09-19T03:28:43;14.30;99.90
8099;DHT22;4092;47.876;9.372;2023-09-19T03:31:11;14.30;99.90
8099;DHT22;4092;47.876;9.372;2023-09-19T03:33:38;14.40;99.90
8099;DHT22;4092;47.876;9.372;2023-09-19T03:36:05;14.40;99.90
8099;DHT22;4092;47.876;9.372;2023-09-19T03:38:33;14.30;99.90
8099;DHT22;4092;47.876;9.372;2023-09-19T03:41:00;14.30;99.90
8099;DHT22;4092;47.876;9.372;2023-09-19T03:43:27;14.30;99.90
8099;DHT22;4092;47.876;9.372;2023-09-19T03:45:56;14.30;99.90
8099;DHT22;4092;47.876;9.372;2023-09-19T03:48:23;14.40;99.90
8099;DHT22;4092;47.876;9.372;2023-09-19T03:50:50;14.30;99.90
8099;DHT22;4092;47.876;9.372;2023-09-19T03:53:18;14.30;99.90
8099;DHT22;4092;47.876;9.372;2023-09-19T03:55:45;14.30;99.90
8099;DHT22;4092;47.876;9.372;2023-09-19T03:58:12;14.30;99.90
8099;DHT22;4092;47.876;9.372;2023-09-19T04:00:40;14.30;99.90
8099;DHT22;4092;47.876;9.372;2023-09-19T04:03:08;14.20;99.90
8099;DHT22;4092;47.876;9.372;2023-09-19T04:05:44;14.10;99.90
8099;DHT22;4092;47.876;9.372;2023-09-19T04:08:11;14.20;99.90
8099;DHT22;4092;47.876;9.372;2023-09-19T04:10:38;14.10;99.90
8099;DHT22;4092;47.876;9.372;2023-09-19T04:13:05;14.10;99.90
8099;DHT22;4092;47.876;9.372;2023-09-19T04:15:33;14.10;99.90
8099;DHT22;4092;47.876;9.372;2023-09-19T04:18:00;14.10;99.90
8099;DHT22;4092;47.876;9.372;2023-09-19T04:20:30;14.10;99.90
8099;DHT22;4092;47.876;9.372;2023-09-19T04:22:57;14.10;99.90
8099;DHT22;4092;47.876;9.372;2023-09-19T04:25:25;14.10;99.90
8099;DHT22;4092;47.876;9.372;2023-09-19T04:27:53;14.20;99.90
8099;DHT22;4092;47.876;9.372;2023-09-19T04:30:20;14.20;99.90
8099;DHT22;4092;47.876;9.372;2023-09-19T04:32:47;14.20;99.90
8099;DHT22;4092;47.876;9.372;2023-09-19T04:35:16;14.20;99.90
8099;DHT22;4092;47.876;9.372;2023-09-19T04:37:44;14.30;99.90
8099;DHT22;4092;47.876;9.372;2023-09-19T04:40:12;14.30;99.90
8099;DHT22;4092;47.876;9.372;2023-09-19T04:42:43;14.30;99.90
8099;DHT22;4092;47.876;9.372;2023-09-19T04:45:10;14.20;99.90
8099;DHT22;4092;47.876;9.372;2023-09-19T04:47:37;14.20;99.90
8099;DHT22;4092;47.876;9.372;2023-09-19T04:50:08;14.20;99.90
8099;DHT22;4092;47.876;9.372;2023-09-19T04:52:40;14.20;99.90
8099;DHT22;4092;47.876;9.372;2023-09-19T04:55:11;14.20;99.90
8099;DHT22;4092;47.876;9.372;2023-09-19T04:57:42;14.10;99.90
8099;DHT22;4092;47.876;9.372;2023-09-19T05:00:11;14.20;99.90
8099;DHT22;4092;47.876;9.372;2023-09-19T05:02:40;14.20;99.90
8099;DHT22;4092;47.876;9.372;2023-09-19T05:05:08;14.20;99.90
8099;DHT22;4092;47.876;9.372;2023-09-19T05:07:35;14.20;99.90
8099;DHT22;4092;47.876;9.372;2023-09-19T05:10:03;14.20;99.90
8099;DHT22;4092;47.876;9.372;2023-09-19T05:12:34;14.10;99.90
8099;DHT22;4092;47.876;9.372;2023-09-19T05:15:02;14.10;99.90
8099;DHT22;4092;47.876;9.372;2023-09-19T05:17:29;14.10;99.90
8099;DHT22;4092;47.876;9.372;2023-09-19T05:19:56;14.10;99.90
8099;DHT22;4092;47.876;9.372;2023-09-19T05:22:23;14.20;99.90
8099;DHT22;4092;47.876;9.372;2023-09-19T05:24:53;14.10;99.90
8099;DHT22;4092;47.876;9.372;2023-09-19T05:27:20;14.20;99.90
8099;DHT22;4092;47.876;9.372;2023-09-19T05:29:49;14.20;99.90
8099;DHT22;4092;47.876;9.372;2023-09-19T05:32:18;14.20;99.90
8099;DHT22;4092;47.876;9.372;2023-09-19T05:34:46;14.30;99.90
8099;DHT22;4092;47.876;9.372;2023-09-19T05:37:13;14.30;99.90
8099;DHT22;4092;47.876;9.372;2023-09-19T05:39:41;14.30;99.90
8099;DHT22;4092;47.876;9.372;2023-09-19T05:42:09;14.30;99.90
8099;DHT22;4092;47.876;9.372;2023-09-19T05:44:36;14.30;99.90
8099;DHT22;4092;47.876;9.372;2023-09-19T05:47:05;14.30;99.90
8099;DHT22;4092;47.876;9.372;2023-09-19T05:49:34;14.30;99.90
8099;DHT22;4092;47.876;9.372;2023-09-19T05:52:04;14.30;99.90
8099;DHT22;4092;47.876;9.372;2023-09-19T05:54:32;14.30;99.90
8099;DHT22;4092;47.876;9.372;2023-09-19T05:56:59;14.30;99.90
8099;DHT22;4092;47.876;9.372;2023-09-19T05:59:27;14.40;99.90
8099;DHT22;4092;47.876;9.372;2023-09-19T06:01:54;14.40;99.90
8099;DHT22;4092;47.876;9.372;2023-09-19T06:04:22;14.40;99.90
8099;DHT22;4092;47.876;9.372;2023-09-19T06:06:49;14.40;99.90
8099;DHT22;4092;47.876;9.372;2023-09-19T06:09:16;14.40;99.90
8099;DHT22;4092;47.876;9.372;2023-09-19T06:11:44;14.40;99.90
8099;DHT22;4092;47.876;9.372;2023-09-19T06:14:12;14.50;99.90
8099;DHT22;4092;47.876;9.372;2023-09-19T06:16:40;14.50;99.90
8099;DHT22;4092;47.876;9.372;2023-09-19T06:19:08;14.60;99.90
8099;DHT22;4092;47.876;9.372;2023-09-19T06:21:37;14.50;99.90
8099;DHT22;4092;47.876;9.372;2023-09-19T06:24:05;14.50;99.90
8099;DHT22;4092;47.876;9.372;2023-09-19T06:26:32;14.60;99.90
8099;DHT22;4092;47.876;9.372;2023-09-19T06:28:59;14.70;99.90
8099;DHT22;4092;47.876;9.372;2023-09-19T06:31:26;14.70;99.90
8099;DHT22;4092;47.876;9.372;2023-09-19T06:33:53;14.70;99.90
8099;DHT22;4092;47.876;9.372;2023-09-19T06:36:20;14.80;99.90
8099;DHT22;4092;47.876;9.372;2023-09-19T06:38:48;14.80;99.90
8099;DHT22;4092;47.876;9.372;2023-09-19T06:41:17;14.90;99.90
8099;DHT22;4092;47.876;9.372;2023-09-19T06:43:44;15.10;99.90
8099;DHT22;4092;47.876;9.372;2023-09-19T06:46:11;15.10;99.90
8099;DHT22;4092;47.876;9.372;2023-09-19T06:48:39;15.10;99.90
8099;DHT22;4092;47.876;9.372;2023-09-19T06:51:07;15.10;99.90
8099;DHT22;4092;47.876;9.372;2023-09-19T06:53:35;15.10;99.90
8099;DHT22;4092;47.876;9.372;2023-09-19T06:56:04;15.20;99.90
8099;DHT22;4092;47.876;9.372;2023-09-19T06:58:32;15.10;99.90
8099;DHT22;4092;47.876;9.372;2023-09-19T07:00:59;15.00;99.90
8099;DHT22;4092;47.876;9.372;2023-09-19T07:03:26;15.00;99.90
8099;DHT22;4092;47.876;9.372;2023-09-19T07:05:54;15.10;99.90
8099;DHT22;4092;47.876;9.372;2023-09-19T07:08:21;15.10;99.90
8099;DHT22;4092;47.876;9.372;2023-09-19T07:10:48;15.10;99.90
8099;DHT22;4092;47.876;9.372;2023-09-19T07:13:19;15.20;99.90
8099;DHT22;4092;47.876;9.372;2023-09-19T07:15:46;15.20;99.90
8099;DHT22;4092;47.876;9.372;2023-09-19T07:18:15;15.30;99.90
8099;DHT22;4092;47.876;9.372;2023-09-19T07:20:43;15.30;99.90
8099;DHT22;4092;47.876;9.372;2023-09-19T07:23:14;15.30;99.90
8099;DHT22;4092;47.876;9.372;2023-09-19T07:25:42;15.30;99.90
8099;DHT22;4092;47.876;9.372;2023-09-19T07:28:09;15.30;99.90
8099;DHT22;4092;47.876;9.372;2023-09-19T07:30:38;15.30;99.90
8099;DHT22;4092;47.876;9.372;2023-09-19T07:33:07;15.30;99.90
8099;DHT22;4092;47.876;9.372;2023-09-19T07:35:37;15.30;99.90
8099;DHT22;4092;47.876;9.372;2023-09-19T07:38:05;15.30;99.90
8099;DHT22;4092;47.876;9.372;2023-09-19T07:40:33;15.30;99.90
8099;DHT22;4092;47.876;9.372;2023-09-19T07:43:00;15.30;99.90
8099;DHT22;4092;47.876;9.372;2023-09-19T07:45:29;15.30;99.90
8099;DHT22;4092;47.876;9.372;2023-09-19T07:47:58;15.30;99.90
8099;DHT22;4092;47.876;9.372;2023-09-19T07:50:27;15.40;99.90
8099;DHT22;4092;47.876;9.372;2023-09-19T07:52:54;15.40;99.90
8099;DHT22;4092;47.876;9.372;2023-09-19T07:55:21;15.40;99.90
8099;DHT22;4092;47.876;9.372;2023-09-19T07:57:51;15.40;99.90
8099;DHT22;4092;47.876;9.372;2023-09-19T08:00:18;15.40;99.90
8099;DHT22;4092;47.876;9.372;2023-09-19T08:02:45;15.40;99.90
8099;DHT22;4092;47.876;9.372;2023-09-19T08:05:14;15.50;99.90
8099;DHT22;4092;47.876;9.372;2023-09-19T08:07:43;15.50;99.90
8099;DHT22;4092;47.876;9.372;2023-09-19T08:10:11;15.60;99.90
8099;DHT22;4092;47.876;9.372;2023-09-19T08:12:38;15.70;99.90
8099;DHT22;4092;47.876;9.372;2023-09-19T08:15:12;15.70;99.90
8099;DHT22;4092;47.876;9.372;2023-09-19T08:17:39;15.80;99.90
8099;DHT22;4092;47.876;9.372;2023-09-19T08:20:07;16.00;99.90
8099;DHT22;4092;47.876;9.372;2023-09-19T08:22:43;16.10;99.90
8099;DHT22;4092;47.876;9.372;2023-09-19T08:25:13;16.20;99.90
8099;DHT22;4092;47.876;9.372;2023-09-19T08:27:43;16.30;99.90
8099;DHT22;4092;47.876;9.372;2023-09-19T08:30:13;16.30;99.90
8099;DHT22;4092;47.876;9.372;2023-09-19T08:32:41;16.20;99.90
8099;DHT22;4092;47.876;9.372;2023-09-19T08:35:09;16.20;99.90
8099;DHT22;4092;47.876;9.372;2023-09-19T08:37:36;16.10;99.90
8099;DHT22;4092;47.876;9.372;2023-09-19T08:40:05;16.20;99.90
8099;DHT22;4092;47.876;9.372;2023-09-19T08:42:47;16.20;99.90
8099;DHT22;4092;47.876;9.372;2023-09-19T08:45:15;16.10;99.90
8099;DHT22;4092;47.876;9.372;2023-09-19T08:47:46;16.20;99.90
8099;DHT22;4092;47.876;9.372;2023-09-19T08:50:19;16.20;99.90
8099;DHT22;4092;47.876;9.372;2023-09-19T08:52:50;16.30;99.90
8099;DHT22;4092;47.876;9.372;2023-09-19T08:55:23;16.30;99.90
8099;DHT22;4092;47.876;9.372;2023-09-19T08:57:53;16.50;99.90
8099;DHT22;4092;47.876;9.372;2023-09-19T09:00:24;16.60;99.90
8099;DHT22;4092;47.876;9.372;2023-09-19T09:02:54;16.80;99.90
8099;DHT22;4092;47.876;9.372;2023-09-19T09:05:23;17.00;99.90
8099;DHT22;4092;47.876;9.372;2023-09-19T09:07:53;17.10;99.90
8099;DHT22;4092;47.876;9.372;2023-09-19T09:10:23;17.10;99.90
8099;DHT22;4092;47.876;9.372;2023-09-19T09:12:51;17.10;99.90
8099;DHT22;4092;47.876;9.372;2023-09-19T09:15:21;17.00;99.90
8099;DHT22;4092;47.876;9.372;2023-09-19T09:17:49;16.90;99.90
8099;DHT22;4092;47.876;9.372;2023-09-19T09:20:19;17.00;99.90
8099;DHT22;4092;47.876;9.372;2023-09-19T09:22:52;17.20;99.90
8099;DHT22;4092;47.876;9.372;2023-09-19T09:25:20;17.30;99.90
8099;DHT22;4092;47.876;9.372;2023-09-19T09:28:00;17.30;99.90
8099;DHT22;4092;47.876;9.372;2023-09-19T09:30:34;17.10;99.90
8099;DHT22;4092;47.876;9.372;2023-09-19T09:33:09;16.90;99.90
8099;DHT22;4092;47.876;9.372;2023-09-19T09:35:37;16.80;99.90
8099;DHT22;4092;47.876;9.372;2023-09-19T09:38:13;16.70;99.90
8099;DHT22;4092;47.876;9.372;2023-09-19T09:40:46;16.70;99.90
8099;DHT22;4092;47.876;9.372;2023-09-19T09:43:30;16.80;99.90
8099;DHT22;4092;47.876;9.372;2023-09-19T09:46:13;16.90;99.90
8099;DHT22;4092;47.876;9.372;2023-09-19T09:48:59;16.90;99.90
8099;DHT22;4092;47.876;9.372;2023-09-19T09:51:42;17.10;99.90
8099;DHT22;4092;47.876;9.372;2023-09-19T09:54:14;17.20;99.90
8099;DHT22;4092;47.876;9.372;2023-09-19T09:56:55;17.40;99.90
8099;DHT22;4092;47.876;9.372;2023-09-19T09:59:47;17.70;99.90
8099;DHT22;4092;47.876;9.372;2023-09-19T10:02:16;17.90;99.90
8099;DHT22;4092;47.876;9.372;2023-09-19T10:04:50;17.90;99.90
8099;DHT22;4092;47.876;9.372;2023-09-19T10:07:33;18.00;99.90
8099;DHT22;4092;47.876;9.372;2023-09-19T10:10:04;18.10;99.90
8099;DHT22;4092;47.876;9.372;2023-09-19T10:12:42;18.00;99.90
8099;DHT22;4092;47.876;9.372;2023-09-19T10:15:11;18.00;99.90
8099;DHT22;4092;47.876;9.372;2023-09-19T10:17:43;17.90;99.90
8099;DHT22;4092;47.876;9.372;2023-09-19T10:20:13;18.00;99.90
8099;DHT22;4092;47.876;9.372;2023-09-19T10:23:00;18.00;99.90
8099;DHT22;4092;47.876;9.372;2023-09-19T10:25:29;18.10;99.90
8099;DHT22;4092;47.876;9.372;2023-09-19T10:27:57;18.10;99.90
8099;DHT22;4092;47.876;9.372;2023-09-19T10:30:27;18.20;99.90
8099;DHT22;4092;47.876;9.372;2023-09-19T10:33:01;18.30;99.90
8099;DHT22;4092;47.876;9.372;2023-09-19T10:35:28;18.30;99.90
8099;DHT22;4092;47.876;9.372;2023-09-19T10:38:00;18.30;99.90
8099;DHT22;4092;47.876;9.372;2023-09-19T10:40:28;18.30;99.90
8099;DHT22;4092;47.876;9.372;2023-09-19T10:43:01;18.50;99.90
8099;DHT22;4092;47.876;9.372;2023-09-19T10:45:33;18.60;99.90
8099;DHT22;4092;47.876;9.372;2023-09-19T10:48:00;18.50;99.90
8099;DHT22;4092;47.876;9.372;2023-09-19T10:50:31;18.70;99.90
8099;DHT22;4092;47.876;9.372;2023-09-19T10:53:01;18.80;99.90
8099;DHT22;4092;47.876;9.372;2023-09-19T10:55:32;18.80;99.90
8099;DHT22;4092;47.876;9.372;2023-09-19T10:58:01;18.80;99.90
8099;DHT22;4092;47.876;9.372;2023-09-19T11:00:51;18.80;99.90
8099;DHT22;4092;47.876;9.372;2023-09-19T11:03:19;19.00;99.90
8099;DHT22;4092;47.876;9.372;2023-09-19T11:06:06;19.20;99.90
8099;DHT22;4092;47.876;9.372;2023-09-19T11:09:04;19.20;99.90
8099;DHT22;4092;47.876;9.372;2023-09-19T11:11:48;19.40;99.90
8099;DHT22;4092;47.876;9.372;2023-09-19T11:14:30;19.40;99.90
8099;DHT22;4092;47.876;9.372;2023-09-19T11:17:36;19.40;99.90
8099;DHT22;4092;47.876;9.372;2023-09-19T11:20:24;19.50;99.90
8099;DHT22;4092;47.876;9.372;2023-09-19T11:23:18;19.70;99.90
8099;DHT22;4092;47.876;9.372;2023-09-19T11:25:49;19.70;99.90
8099;DHT22;4092;47.876;9.372;2023-09-19T11:28:34;19.50;99.90
8099;DHT22;4092;47.876;9.372;2023-09-19T11:34:39;19.30;99.90
8099;DHT22;4092;47.876;9.372;2023-09-19T11:40:11;19.30;99.90
8099;DHT22;4092;47.876;9.372;2023-09-19T11:42:42;19.30;99.90
8099;DHT22;4092;47.876;9.372;2023-09-19T11:48:12;19.10;99.90
8099;DHT22;4092;47.876;9.372;2023-09-19T11:50:44;19.20;99.90
8099;DHT22;4092;47.876;9.372;2023-09-19T11:53:13;19.20;99.90
8099;DHT22;4092;47.876;9.372;2023-09-19T11:55:42;19.00;99.90
8099;DHT22;4092;47.876;9.372;2023-09-19T11:58:12;19.10;99.90
8099;DHT22;4092;47.876;9.372;2023-09-19T12:00:45;19.30;99.90
8099;DHT22;4092;47.876;9.372;2023-09-19T12:03:13;19.50;99.90
8099;DHT22;4092;47.876;9.372;2023-09-19T12:05:40;19.70;99.90
8099;DHT22;4092;47.876;9.372;2023-09-19T12:08:09;19.90;99.90
8099;DHT22;4092;47.876;9.372;2023-09-19T12:10:45;19.90;99.90
8099;DHT22;4092;47.876;9.372;2023-09-19T12:13:16;19.90;99.90
8099;DHT22;4092;47.876;9.372;2023-09-19T12:15:43;20.10;99.90
8099;DHT22;4092;47.876;9.372;2023-09-19T12:18:26;20.00;99.90
8099;DHT22;4092;47.876;9.372;2023-09-19T12:20:54;20.00;99.90
8099;DHT22;4092;47.876;9.372;2023-09-19T12:23:22;19.70;99.90
8099;DHT22;4092;47.876;9.372;2023-09-19T12:25:51;19.50;99.90
8099;DHT22;4092;47.876;9.372;2023-09-19T12:28:22;19.90;99.90
8099;DHT22;4092;47.876;9.372;2023-09-19T12:30:52;20.30;99.90
8099;DHT22;4092;47.876;9.372;2023-09-19T12:33:21;20.70;99.90
8099;DHT22;4092;47.876;9.372;2023-09-19T12:35:51;20.90;99.90
8099;DHT22;4092;47.876;9.372;2023-09-19T12:38:25;21.10;99.90
8099;DHT22;4092;47.876;9.372;2023-09-19T12:40:55;20.90;99.90
8099;DHT22;4092;47.876;9.372;2023-09-19T12:43:22;20.70;99.90
8099;DHT22;4092;47.876;9.372;2023-09-19T12:45:50;20.70;99.90
8099;DHT22;4092;47.876;9.372;2023-09-19T12:48:20;21.10;99.90
8099;DHT22;4092;47.876;9.372;2023-09-19T12:51:05;21.40;99.90
8099;DHT22;4092;47.876;9.372;2023-09-19T12:53:40;22.00;99.90
8099;DHT22;4092;47.876;9.372;2023-09-19T12:56:08;22.50;99.90
8099;DHT22;4092;47.876;9.372;2023-09-19T12:58:48;22.70;99.90
8099;DHT22;4092;47.876;9.372;2023-09-19T13:01:16;23.10;99.90
8099;DHT22;4092;47.876;9.372;2023-09-19T13:03:43;23.90;99.90
8099;DHT22;4092;47.876;9.372;2023-09-19T13:06:11;23.70;99.90
8099;DHT22;4092;47.876;9.372;2023-09-19T13:08:40;24.50;99.90
8099;DHT22;4092;47.876;9.372;2023-09-19T13:11:11;26.00;99.90
8099;DHT22;4092;47.876;9.372;2023-09-19T13:13:42;26.20;99.90
8099;DHT22;4092;47.876;9.372;2023-09-19T13:16:10;25.60;99.90
8099;DHT22;4092;47.876;9.372;2023-09-19T13:18:47;25.00;99.90
8099;DHT22;4092;47.876;9.372;2023-09-19T13:21:17;24.90;99.90
8099;DHT22;4092;47.876;9.372;2023-09-19T13:23:56;23.90;99.90
8099;DHT22;4092;47.876;9.372;2023-09-19T13:26:43;23.20;99.90
8099;DHT22;4092;47.876;9.372;2023-09-19T13:29:10;23.00;99.90
8099;DHT22;4092;47.876;9.372;2023-09-19T13:31:37;23.00;99.90
8099;DHT22;4092;47.876;9.372;2023-09-19T13:34:07;23.70;99.90
8099;DHT22;4092;47.876;9.372;2023-09-19T13:36:34;24.20;99.90
8099;DHT22;4092;47.876;9.372;2023-09-19T13:39:04;23.80;99.90
8099;DHT22;4092;47.876;9.372;2023-09-19T13:41:33;23.50;99.90
8099;DHT22;4092;47.876;9.372;2023-09-19T13:44:02;23.20;99.90
8099;DHT22;4092;47.876;9.372;2023-09-19T13:46:30;23.00;99.90
8099;DHT22;4092;47.876;9.372;2023-09-19T13:48:58;23.00;99.90
8099;DHT22;4092;47.876;9.372;2023-09-19T13:51:29;22.80;99.90
8099;DHT22;4092;47.876;9.372;2023-09-19T13:53:56;22.90;99.90
8099;DHT22;4092;47.876;9.372;2023-09-19T13:56:25;22.90;99.90
8099;DHT22;4092;47.876;9.372;2023-09-19T13:58:53;23.10;99.90
8099;DHT22;4092;47.876;9.372;2023-09-19T14:01:20;23.10;99.90
8099;DHT22;4092;47.876;9.372;2023-09-19T14:03:47;23.20;99.90
8099;DHT22;4092;47.876;9.372;2023-09-19T14:06:15;23.20;99.90
8099;DHT22;4092;47.876;9.372;2023-09-19T14:08:43;23.20;99.90
8099;DHT22;4092;47.876;9.372;2023-09-19T14:11:12;23.30;99.90
8099;DHT22;4092;47.876;9.372;2023-09-19T14:13:43;23.40;99.90
8099;DHT22;4092;47.876;9.372;2023-09-19T14:16:14;23.30;99.90
8099;DHT22;4092;47.876;9.372;2023-09-19T14:18:41;22.80;99.90
8099;DHT22;4092;47.876;9.372;2023-09-19T14:21:08;22.70;99.90
8099;DHT22;4092;47.876;9.372;2023-09-19T14:23:37;23.00;99.90
8099;DHT22;4092;47.876;9.372;2023-09-19T14:26:04;23.20;99.90
8099;DHT22;4092;47.876;9.372;2023-09-19T14:28:32;23.40;99.90
8099;DHT22;4092;47.876;9.372;2023-09-19T14:31:05;23.70;99.90
8099;DHT22;4092;47.876;9.372;2023-09-19T14:33:33;23.90;99.90
8099;DHT22;4092;47.876;9.372;2023-09-19T14:36:05;24.20;99.90
8099;DHT22;4092;47.876;9.372;2023-09-19T14:38:35;24.00;99.90
8099;DHT22;4092;47.876;9.372;2023-09-19T14:41:03;24.20;99.90
8099;DHT22;4092;47.876;9.372;2023-09-19T14:43:30;24.40;99.90
8099;DHT22;4092;47.876;9.372;2023-09-19T14:46:01;24.40;99.90
8099;DHT22;4092;47.876;9.372;2023-09-19T14:48:30;24.70;99.90
8099;DHT22;4092;47.876;9.372;2023-09-19T14:51:02;24.90;99.90
8099;DHT22;4092;47.876;9.372;2023-09-19T14:53:29;24.90;99.90
8099;DHT22;4092;47.876;9.372;2023-09-19T14:55:56;24.90;99.90
8099;DHT22;4092;47.876;9.372;2023-09-19T14:58:23;25.10;99.90
8099;DHT22;4092;47.876;9.372;2023-09-19T15:00:51;25.20;99.90
8099;DHT22;4092;47.876;9.372;2023-09-19T15:03:18;25.20;99.90
8099;DHT22;4092;47.876;9.372;2023-09-19T15:05:47;25.50;99.90
8099;DHT22;4092;47.876;9.372;2023-09-19T15:08:14;25.50;99.90
8099;DHT22;4092;47.876;9.372;2023-09-19T15:10:49;25.40;99.90
8099;DHT22;4092;47.876;9.372;2023-09-19T15:13:16;25.30;99.90
8099;DHT22;4092;47.876;9.372;2023-09-19T15:15:43;25.50;99.90
8099;DHT22;4092;47.876;9.372;2023-09-19T15:18:12;25.50;99.90
8099;DHT22;4092;47.876;9.372;2023-09-19T15:20:43;25.40;99.90
8099;DHT22;4092;47.876;9.372;2023-09-19T15:23:11;25.50;99.90
8099;DHT22;4092;47.876;9.372;2023-09-19T15:25:38;25.20;99.90
8099;DHT22;4092;47.876;9.372;2023-09-19T15:28:06;25.30;99.90
8099;DHT22;4092;47.876;9.372;2023-09-19T15:30:37;25.30;99.90
8099;DHT22;4092;47.876;9.372;2023-09-19T15:33:04;25.20;99.90
8099;DHT22;4092;47.876;9.372;2023-09-19T15:35:31;24.90;99.90
8099;DHT22;4092;47.876;9.372;2023-09-19T15:37:58;24.60;99.90
8099;DHT22;4092;47.876;9.372;2023-09-19T15:40:27;24.20;99.90
8099;DHT22;4092;47.876;9.372;2023-09-19T15:42:55;23.90;99.90
8099;DHT22;4092;47.876;9.372;2023-09-19T15:45:23;23.70;99.90
8099;DHT22;4092;47.876;9.372;2023-09-19T15:47:51;23.50;99.90
8099;DHT22;4092;47.876;9.372;2023-09-19T15:50:18;23.40;99.90
8099;DHT22;4092;47.876;9.372;2023-09-19T15:52:45;23.20;99.90
8099;DHT22;4092;47.876;9.372;2023-09-19T15:55:13;23.10;99.90
8099;DHT22;4092;47.876;9.372;2023-09-19T15:57:42;22.90;99.90
8099;DHT22;4092;47.876;9.372;2023-09-19T16:00:09;23.00;99.90
8099;DHT22;4092;47.876;9.372;2023-09-19T16:02:39;22.80;99.90
8099;DHT22;4092;47.876;9.372;2023-09-19T16:05:07;22.80;99.90
8099;DHT22;4092;47.876;9.372;2023-09-19T16:07:35;22.60;99.90
8099;DHT22;4092;47.876;9.372;2023-09-19T16:10:02;22.50;99.90
8099;DHT22;4092;47.876;9.372;2023-09-19T16:12:29;22.20;99.90
8099;DHT22;4092;47.876;9.372;2023-09-19T16:14:58;22.00;99.90
8099;DHT22;4092;47.876;9.372;2023-09-19T16:17:25;21.80;99.90
8099;DHT22;4092;47.876;9.372;2023-09-19T16:19:53;21.60;99.90
8099;DHT22;4092;47.876;9.372;2023-09-19T16:22:20;21.40;99.90
8099;DHT22;4092;47.876;9.372;2023-09-19T16:24:47;21.20;99.90
8099;DHT22;4092;47.876;9.372;2023-09-19T16:27:14;21.00;99.90
8099;DHT22;4092;47.876;9.372;2023-09-19T16:29:45;20.80;99.90